Time;durP1;ratioP1;P1;durP2;ratioP2;P2;SDS_P1;SDS_P2;PMS_P1;PMS_P2;Temp;Humidity;BMP_temperature;BMP_pressure;BME280_temperature;BME280_humidity;BME280_pressure;Samples;Min_cycle;Max_cycle;Signal;HPM_P1;HPM_P2
2023/09/21 00:01:14;;;;;;;7.90;2.30;;;;;;;;;;5145044;27;20190;-74
2023/09/21 00:03:40;;;;;;;4.65;1.85;;;;;;;;;;5139407;27;20661;-71
2023/09/21 00:06:06;;;;;;;3.92;1.90;;;;;;;;;;5145000;27;20194;-69
2023/09/21 00:08:32;;;;;;;4.53;1.77;;;;;;;;;;5146491;27;20182;-70
2023/09/21 00:10:58;;;;;;;5.07;2.08;;;;;;;;;;5135490;27;20316;-68
2023/09/21 00:13:28;;;;;;;3.65;1.90;;;;;;;;;;5144021;27;20669;-69
2023/09/21 00:15:55;;;;;;;5.25;1.75;;;;;;;;;;5132366;27;20190;-69
2023/09/21 00:18:23;;;;;;;3.67;1.90;;;;;;;;;;5145309;27;20288;-69
2023/09/21 00:20:52;;;;;;;4.38;2.30;;;;;;;;;;5134179;27;20228;-68
2023/09/21 00:23:20;;;;;;;4.75;2.10;;;;;;;;;;5135487;27;20219;-69
2023/09/21 00:25:46;;;;;;;3.85;1.95;;;;;;;;;;5145107;27;20625;-69
2023/09/21 00:28:13;;;;;;;7.65;1.95;;;;;;;;;;5142678;27;20213;-69
2023/09/21 00:30:40;;;;;;;2.67;1.63;;;;;;;;;;5151524;27;20255;-69
2023/09/21 00:33:07;;;;;;;3.88;2.38;;;;;;;;;;5150996;27;20189;-69
2023/09/21 00:35:33;;;;;;;4.93;1.88;;;;;;;;;;5150928;27;20217;-69
2023/09/21 00:37:58;;;;;;;2.80;1.77;;;;;;;;;;5144910;27;20191;-70
2023/09/21 00:40:24;;;;;;;5.18;1.80;;;;;;;;;;5142925;27;20548;-69
2023/09/21 00:42:51;;;;;;;6.95;1.67;;;;;;;;;;5139641;27;20186;-69
2023/09/21 00:45:17;;;;;;;3.45;1.60;;;;;;;;;;5135041;27;20498;-69
2023/09/21 00:47:51;;;;;;;3.08;1.70;;;;;;;;;;5116284;27;20183;-70
2023/09/21 00:50:22;;;;;;;4.07;1.70;;;;;;;;;;5143580;27;20228;-70
2023/09/21 00:52:52;;;;;;;3.90;1.80;;;;;;;;;;5138245;27;20182;-69
2023/09/21 00:55:29;;;;;;;3.25;1.80;;;;;;;;;;5134380;27;20312;-70
2023/09/21 00:57:59;;;;;;;4.30;1.80;;;;;;;;;;5078306;28;20224;-69
2023/09/21 01:00:26;;;;;;;5.07;1.90;;;;;;;;;;5107619;28;20179;-69
2023/09/21 01:02:53;;;;;;;3.45;1.70;;;;;;;;;;5092381;28;20204;-69
2023/09/21 01:05:21;;;;;;;3.20;1.77;;;;;;;;;;5094398;28;20176;-69
2023/09/21 01:07:48;;;;;;;4.80;1.95;;;;;;;;;;5093365;28;20697;-68
2023/09/21 01:10:14;;;;;;;3.17;1.70;;;;;;;;;;5105022;28;20195;-69
2023/09/21 01:12:43;;;;;;;6.05;1.80;;;;;;;;;;5102052;28;20789;-70
2023/09/21 01:15:09;;;;;;;2.92;1.70;;;;;;;;;;5101303;28;20215;-70
2023/09/21 01:17:34;;;;;;;3.80;1.58;;;;;;;;;;5103205;28;20235;-69
2023/09/21 01:20:03;;;;;;;6.25;1.80;;;;;;;;;;5109429;28;20197;-69
2023/09/21 01:22:30;;;;;;;3.13;1.92;;;;;;;;;;5101445;28;20325;-68
2023/09/21 01:24:56;;;;;;;2.90;1.60;;;;;;;;;;5096337;27;20184;-71
2023/09/21 01:27:21;;;;;;;2.70;1.65;;;;;;;;;;5098418;27;20199;-69
2023/09/21 01:29:52;;;;;;;3.60;1.70;;;;;;;;;;5092988;28;20188;-69
2023/09/21 01:32:20;;;;;;;2.65;1.70;;;;;;;;;;5089180;28;20188;-69
2023/09/21 01:34:46;;;;;;;3.03;1.63;;;;;;;;;;5102593;28;20216;-69
2023/09/21 01:37:14;;;;;;;3.67;1.88;;;;;;;;;;5090250;28;20208;-69
2023/09/21 01:39:40;;;;;;;7.80;2.00;;;;;;;;;;5096937;28;20294;-68
2023/09/21 01:42:05;;;;;;;4.70;1.80;;;;;;;;;;5093684;28;20686;-69
2023/09/21 01:44:30;;;;;;;4.40;1.75;;;;;;;;;;5092529;28;20188;-69
2023/09/21 01:46:56;;;;;;;5.88;2.00;;;;;;;;;;5098535;28;20474;-69
2023/09/21 01:49:22;;;;;;;5.60;1.80;;;;;;;;;;5104218;28;20284;-70
2023/09/21 01:51:49;;;;;;;3.35;1.80;;;;;;;;;;5099396;28;20622;-69
2023/09/21 01:54:14;;;;;;;2.60;1.75;;;;;;;;;;5096877;28;20604;-69
2023/09/21 01:56:39;;;;;;;5.18;1.92;;;;;;;;;;5114685;27;20309;-70
2023/09/21 01:59:05;;;;;;;3.97;2.10;;;;;;;;;;5132739;27;20577;-68
2023/09/21 02:01:31;;;;;;;3.35;1.70;;;;;;;;;;5135079;27;20277;-71
2023/09/21 02:03:58;;;;;;;2.90;2.00;;;;;;;;;;5134833;27;20226;-69
2023/09/21 02:06:23;;;;;;;3.53;1.70;;;;;;;;;;5110960;27;20265;-68
2023/09/21 02:08:49;;;;;;;3.97;1.45;;;;;;;;;;5137618;27;20322;-70
2023/09/21 02:11:14;;;;;;;4.15;1.70;;;;;;;;;;5138458;27;20617;-68
2023/09/21 02:13:40;;;;;;;3.00;1.90;;;;;;;;;;5143663;27;20594;-71
2023/09/21 02:16:06;;;;;;;4.32;1.75;;;;;;;;;;5146170;27;20266;-69
2023/09/21 02:18:32;;;;;;;4.68;1.40;;;;;;;;;;5136951;27;20217;-70
2023/09/21 02:21:00;;;;;;;3.08;1.65;;;;;;;;;;5137345;27;20556;-70
2023/09/21 02:23:25;;;;;;;3.83;2.10;;;;;;;;;;5134074;27;20631;-69
2023/09/21 02:25:52;;;;;;;5.07;1.70;;;;;;;;;;5130667;27;20542;-69
2023/09/21 02:28:17;;;;;;;2.58;1.60;;;;;;;;;;5131722;27;20183;-69
2023/09/21 02:30:47;;;;;;;3.95;2.58;;;;;;;;;;5139519;27;20716;-69
2023/09/21 02:33:15;;;;;;;5.97;1.70;;;;;;;;;;5133910;27;20531;-69
2023/09/21 02:35:41;;;;;;;3.65;1.73;;;;;;;;;;5130806;27;20190;-69
2023/09/21 02:38:11;;;;;;;5.10;1.60;;;;;;;;;;5116921;27;20520;-68
2023/09/21 02:40:39;;;;;;;5.82;1.80;;;;;;;;;;5141839;27;20541;-69
2023/09/21 02:43:07;;;;;;;4.45;1.60;;;;;;;;;;5131395;27;20207;-68
2023/09/21 02:45:34;;;;;;;4.28;1.83;;;;;;;;;;5128532;27;20187;-68
2023/09/21 02:48:02;;;;;;;3.50;1.70;;;;;;;;;;5131262;27;20195;-69
2023/09/21 02:50:28;;;;;;;4.57;2.22;;;;;;;;;;5131644;27;20545;-69
2023/09/21 02:52:54;;;;;;;3.95;1.67;;;;;;;;;;5137713;27;20622;-69
2023/09/21 02:55:24;;;;;;;3.35;1.67;;;;;;;;;;5143836;27;20276;-69
2023/09/21 02:57:58;;;;;;;5.28;1.83;;;;;;;;;;5137340;27;20608;-68
2023/09/21 03:00:26;;;;;;;3.83;1.60;;;;;;;;;;5142767;27;20193;-69
2023/09/21 03:02:54;;;;;;;3.00;1.70;;;;;;;;;;5138172;27;20246;-69
2023/09/21 03:05:19;;;;;;;3.40;1.95;;;;;;;;;;5140188;27;20187;-69
2023/09/21 03:07:45;;;;;;;2.55;1.70;;;;;;;;;;5140190;27;20625;-69
2023/09/21 03:10:11;;;;;;;2.38;1.70;;;;;;;;;;5129036;27;20658;-71
2023/09/21 03:12:37;;;;;;;4.63;1.80;;;;;;;;;;5126821;27;20193;-69
2023/09/21 03:15:07;;;;;;;7.70;1.95;;;;;;;;;;5121647;27;20224;-70
2023/09/21 03:17:34;;;;;;;4.38;2.03;;;;;;;;;;5140101;27;20322;-70
2023/09/21 03:20:00;;;;;;;3.30;1.70;;;;;;;;;;5139386;27;20316;-69
2023/09/21 03:22:25;;;;;;;5.15;1.92;;;;;;;;;;5142489;27;20616;-68
2023/09/21 03:24:54;;;;;;;3.20;1.67;;;;;;;;;;5137332;27;20666;-68
2023/09/21 03:27:21;;;;;;;3.88;1.75;;;;;;;;;;5119403;27;20186;-69
2023/09/21 03:29:47;;;;;;;3.60;1.50;;;;;;;;;;5139654;27;20282;-70
2023/09/21 03:32:12;;;;;;;4.82;1.70;;;;;;;;;;5120056;27;20247;-69
2023/09/21 03:34:38;;;;;;;5.55;1.75;;;;;;;;;;5120696;27;20211;-68
2023/09/21 03:37:04;;;;;;;4.82;1.63;;;;;;;;;;5140010;27;20805;-68
2023/09/21 03:39:29;;;;;;;4.93;1.75;;;;;;;;;;5141423;27;20189;-69
2023/09/21 03:41:57;;;;;;;3.33;1.40;;;;;;;;;;5150940;27;20194;-69
2023/09/21 03:44:22;;;;;;;5.03;1.70;;;;;;;;;;5145490;27;20178;-69
2023/09/21 03:46:48;;;;;;;4.25;2.00;;;;;;;;;;5139748;27;20202;-68
2023/09/21 03:49:15;;;;;;;3.53;1.92;;;;;;;;;;5142015;27;20186;-70
2023/09/21 03:51:41;;;;;;;3.53;1.60;;;;;;;;;;5137462;27;20200;-69
2023/09/21 03:54:06;;;;;;;2.53;1.77;;;;;;;;;;5142809;27;20214;-70
2023/09/21 03:56:35;;;;;;;3.65;1.85;;;;;;;;;;5136529;27;20237;-70
2023/09/21 03:59:01;;;;;;;3.40;1.42;;;;;;;;;;5144771;27;20197;-69
2023/09/21 04:01:26;;;;;;;2.05;1.40;;;;;;;;;;5116592;27;20637;-70
2023/09/21 04:03:54;;;;;;;4.63;1.58;;;;;;;;;;5145966;27;20262;-68
2023/09/21 04:06:19;;;;;;;4.15;1.55;;;;;;;;;;5141216;27;20679;-69
2023/09/21 04:08:44;;;;;;;3.92;1.98;;;;;;;;;;5136344;27;20195;-68
2023/09/21 04:11:10;;;;;;;3.17;1.73;;;;;;;;;;5142538;27;20638;-72
2023/09/21 04:13:35;;;;;;;4.22;1.95;;;;;;;;;;5142142;27;20264;-69
2023/09/21 04:16:05;;;;;;;4.88;1.75;;;;;;;;;;5133494;27;20251;-68
2023/09/21 04:18:31;;;;;;;3.47;1.80;;;;;;;;;;5134969;27;20665;-69
2023/09/21 04:20:56;;;;;;;3.40;1.80;;;;;;;;;;5136347;27;20217;-68
2023/09/21 04:23:24;;;;;;;7.00;2.30;;;;;;;;;;5138757;27;20239;-69
2023/09/21 04:25:50;;;;;;;3.83;2.22;;;;;;;;;;5143303;27;20613;-68
2023/09/21 04:28:15;;;;;;;5.03;1.73;;;;;;;;;;5145209;27;20214;-70
2023/09/21 04:30:40;;;;;;;3.22;1.90;;;;;;;;;;5136752;27;20199;-69
2023/09/21 04:33:06;;;;;;;4.78;1.90;;;;;;;;;;5135658;27;20217;-68
2023/09/21 04:35:31;;;;;;;3.25;1.80;;;;;;;;;;5130219;27;20218;-69
2023/09/21 04:37:58;;;;;;;2.88;1.48;;;;;;;;;;5140302;27;20627;-69
2023/09/21 04:40:25;;;;;;;3.70;1.90;;;;;;;;;;5145389;27;20190;-69
2023/09/21 04:42:51;;;;;;;5.40;2.30;;;;;;;;;;5147822;27;20655;-69
2023/09/21 04:45:18;;;;;;;3.70;1.88;;;;;;;;;;5135903;27;20262;-72
2023/09/21 04:47:48;;;;;;;2.72;2.00;;;;;;;;;;5131596;27;20221;-69
2023/09/21 04:50:16;;;;;;;3.05;1.90;;;;;;;;;;5129890;27;20560;-68
2023/09/21 04:52:43;;;;;;;5.25;1.80;;;;;;;;;;5136054;27;20283;-68
2023/09/21 04:55:09;;;;;;;2.70;1.70;;;;;;;;;;5141091;27;20259;-67
2023/09/21 04:57:38;;;;;;;3.70;1.70;;;;;;;;;;5144214;27;20244;-69
2023/09/21 05:00:10;;;;;;;4.70;1.83;;;;;;;;;;5142958;27;20182;-69
2023/09/21 05:02:36;;;;;;;3.25;1.77;;;;;;;;;;5134668;27;20619;-69
2023/09/21 05:05:02;;;;;;;2.67;1.75;;;;;;;;;;5135584;27;20202;-69
2023/09/21 05:07:28;;;;;;;3.30;2.00;;;;;;;;;;5135494;27;20502;-69
2023/09/21 05:09:53;;;;;;;3.25;1.60;;;;;;;;;;5136394;27;20669;-69
2023/09/21 05:12:19;;;;;;;4.05;2.00;;;;;;;;;;5108996;27;20186;-70
2023/09/21 05:14:48;;;;;;;3.60;2.00;;;;;;;;;;5117237;27;20219;-69
2023/09/21 05:17:17;;;;;;;4.22;1.95;;;;;;;;;;5133526;27;20291;-70
2023/09/21 05:19:42;;;;;;;2.95;1.58;;;;;;;;;;5131209;27;20205;-71
2023/09/21 05:22:09;;;;;;;3.65;1.88;;;;;;;;;;5110960;27;20175;-70
2023/09/21 05:24:36;;;;;;;3.00;1.88;;;;;;;;;;5126427;27;20578;-70
2023/09/21 05:27:01;;;;;;;3.40;1.80;;;;;;;;;;5135668;27;20182;-69
2023/09/21 05:29:27;;;;;;;5.00;1.77;;;;;;;;;;5130064;27;20273;-71
2023/09/21 05:31:53;;;;;;;5.13;2.03;;;;;;;;;;5126973;27;20668;-69
2023/09/21 05:34:19;;;;;;;4.70;1.67;;;;;;;;;;5140827;27;20240;-70
2023/09/21 05:36:46;;;;;;;3.28;1.75;;;;;;;;;;5128731;27;20191;-70
2023/09/21 05:39:17;;;;;;;3.78;2.15;;;;;;;;;;5132494;27;20198;-69
2023/09/21 05:41:49;;;;;;;5.03;1.88;;;;;;;;;;5130777;27;20186;-68
2023/09/21 05:44:15;;;;;;;3.38;1.88;;;;;;;;;;5142762;27;20182;-69
2023/09/21 05:46:40;;;;;;;5.00;1.70;;;;;;;;;;5137643;27;20205;-69
2023/09/21 05:49:09;;;;;;;2.85;1.75;;;;;;;;;;5143436;27;20595;-69
2023/09/21 05:51:39;;;;;;;4.38;1.92;;;;;;;;;;5130318;27;20195;-68
2023/09/21 05:54:05;;;;;;;3.78;1.75;;;;;;;;;;5141896;27;20198;-67
2023/09/21 05:56:32;;;;;;;7.68;2.05;;;;;;;;;;5142412;27;20229;-69
2023/09/21 05:58:59;;;;;;;4.82;1.88;;;;;;;;;;5133073;27;20194;-68
2023/09/21 06:01:25;;;;;;;3.33;1.90;;;;;;;;;;5145510;27;20692;-69
2023/09/21 06:03:52;;;;;;;3.22;1.98;;;;;;;;;;5134637;27;20209;-68
2023/09/21 06:06:19;;;;;;;3.30;1.85;;;;;;;;;;5135035;27;20252;-67
2023/09/21 06:08:45;;;;;;;4.40;1.90;;;;;;;;;;5130821;27;20522;-68
2023/09/21 06:11:10;;;;;;;5.43;2.78;;;;;;;;;;5131120;27;20210;-69
2023/09/21 06:13:36;;;;;;;2.63;2.05;;;;;;;;;;5133306;27;21367;-69
2023/09/21 06:16:02;;;;;;;4.80;2.00;;;;;;;;;;5136641;27;20186;-69
2023/09/21 06:18:29;;;;;;;4.35;1.83;;;;;;;;;;5126366;27;20278;-69
2023/09/21 06:20:55;;;;;;;4.60;2.03;;;;;;;;;;5137538;27;20205;-69
2023/09/21 06:23:22;;;;;;;3.65;1.98;;;;;;;;;;5142589;27;20274;-70
2023/09/21 06:25:48;;;;;;;5.78;2.20;;;;;;;;;;5129297;27;20597;-69
2023/09/21 06:28:15;;;;;;;6.40;2.10;;;;;;;;;;5115877;27;20273;-70
2023/09/21 06:30:40;;;;;;;3.40;2.15;;;;;;;;;;5112122;28;20638;-70
2023/09/21 06:33:06;;;;;;;6.25;2.10;;;;;;;;;;5132581;27;20182;-69
2023/09/21 06:35:32;;;;;;;6.47;2.00;;;;;;;;;;5135871;27;20237;-70
2023/09/21 06:37:59;;;;;;;3.65;2.13;;;;;;;;;;5141796;27;20486;-70
2023/09/21 06:40:25;;;;;;;5.18;2.03;;;;;;;;;;5142696;27;20249;-69
2023/09/21 06:42:50;;;;;;;4.45;1.80;;;;;;;;;;5142711;27;20323;-69
2023/09/21 06:45:16;;;;;;;7.85;2.10;;;;;;;;;;5138569;27;20719;-68
2023/09/21 06:47:42;;;;;;;4.53;2.05;;;;;;;;;;5141546;27;20193;-68
2023/09/21 06:50:10;;;;;;;5.47;2.30;;;;;;;;;;5145893;27;20266;-68
2023/09/21 06:52:39;;;;;;;3.63;2.20;;;;;;;;;;5117430;27;20182;-69
2023/09/21 06:55:07;;;;;;;5.05;2.15;;;;;;;;;;5132689;27;20638;-69
2023/09/21 06:57:34;;;;;;;4.15;2.05;;;;;;;;;;5140941;27;20251;-68
2023/09/21 07:00:01;;;;;;;5.25;2.65;;;;;;;;;;5137053;27;20217;-69
2023/09/21 07:02:26;;;;;;;6.63;2.40;;;;;;;;;;5138572;27;20186;-70
2023/09/21 07:04:53;;;;;;;6.03;2.75;;;;;;;;;;5139606;27;20209;-69
2023/09/21 07:07:19;;;;;;;4.93;2.45;;;;;;;;;;5133150;27;20617;-69
2023/09/21 07:09:47;;;;;;;7.10;2.65;;;;;;;;;;5137113;27;20238;-68
2023/09/21 07:12:13;;;;;;;7.28;2.15;;;;;;;;;;5151144;27;20186;-69
2023/09/21 07:14:39;;;;;;;5.00;2.47;;;;;;;;;;5129246;27;20297;-69
2023/09/21 07:17:07;;;;;;;7.10;2.38;;;;;;;;;;5141401;27;20689;-69
2023/09/21 07:19:36;;;;;;;4.57;2.33;;;;;;;;;;5119045;27;20220;-68
2023/09/21 07:22:02;;;;;;;4.15;2.13;;;;;;;;;;5146336;27;20220;-69
2023/09/21 07:24:29;;;;;;;4.88;2.13;;;;;;;;;;5146948;27;20243;-69
2023/09/21 07:26:56;;;;;;;6.07;2.20;;;;;;;;;;5117075;27;20175;-68
2023/09/21 07:29:23;;;;;;;5.72;2.45;;;;;;;;;;5132772;27;20269;-69
2023/09/21 07:31:48;;;;;;;6.05;2.42;;;;;;;;;;5149849;27;20188;-70
2023/09/21 07:34:14;;;;;;;5.22;2.78;;;;;;;;;;5145589;27;20214;-69
2023/09/21 07:36:39;;;;;;;4.20;2.40;;;;;;;;;;5140230;27;20190;-70
2023/09/21 07:39:10;;;;;;;5.13;2.40;;;;;;;;;;5139984;27;20244;-71
2023/09/21 07:41:36;;;;;;;6.15;2.33;;;;;;;;;;5133499;27;20179;-68
2023/09/21 07:44:03;;;;;;;3.50;2.08;;;;;;;;;;5145731;27;20190;-68
2023/09/21 07:46:29;;;;;;;4.90;2.45;;;;;;;;;;5140056;27;20192;-69
2023/09/21 07:48:54;;;;;;;3.88;2.30;;;;;;;;;;5123837;27;20190;-68
2023/09/21 07:51:21;;;;;;;5.50;2.38;;;;;;;;;;5144503;27;20183;-69
2023/09/21 07:53:46;;;;;;;5.30;2.40;;;;;;;;;;5140962;27;20248;-70
2023/09/21 07:56:13;;;;;;;5.57;2.55;;;;;;;;;;5135498;27;20622;-68
2023/09/21 07:58:39;;;;;;;4.57;2.40;;;;;;;;;;5139480;27;20226;-69
2023/09/21 08:01:04;;;;;;;7.40;2.17;;;;;;;;;;5137152;27;20297;-69
2023/09/21 08:03:31;;;;;;;6.20;2.53;;;;;;;;;;5137277;27;20209;-69
2023/09/21 08:05:57;;;;;;;7.60;2.55;;;;;;;;;;5138831;27;20211;-69
2023/09/21 08:08:25;;;;;;;5.35;2.53;;;;;;;;;;5122955;27;20678;-69
2023/09/21 08:10:51;;;;;;;3.85;2.28;;;;;;;;;;5136384;27;20274;-70
2023/09/21 08:13:17;;;;;;;8.15;2.63;;;;;;;;;;5143972;27;20186;-70
2023/09/21 08:15:43;;;;;;;4.57;2.70;;;;;;;;;;5140847;27;20194;-67
2023/09/21 08:18:10;;;;;;;4.60;2.38;;;;;;;;;;5133072;27;20248;-67
2023/09/21 08:20:39;;;;;;;4.75;2.58;;;;;;;;;;5144777;27;20186;-68
2023/09/21 08:23:06;;;;;;;3.55;2.33;;;;;;;;;;5148124;27;20584;-67
2023/09/21 08:25:33;;;;;;;7.57;2.10;;;;;;;;;;5152880;27;20188;-68
2023/09/21 08:27:59;;;;;;;4.28;2.45;;;;;;;;;;5144063;27;20238;-68
2023/09/21 08:30:25;;;;;;;3.58;2.33;;;;;;;;;;5145904;27;20183;-69
2023/09/21 08:32:50;;;;;;;5.30;2.58;;;;;;;;;;5128298;27;20521;-68
2023/09/21 08:35:16;;;;;;;4.40;2.30;;;;;;;;;;5126961;27;20663;-68
2023/09/21 08:37:42;;;;;;;4.07;2.30;;;;;;;;;;5141882;27;20190;-69
2023/09/21 08:40:08;;;;;;;3.67;2.10;;;;;;;;;;5136752;27;20187;-69
2023/09/21 08:42:35;;;;;;;4.68;2.53;;;;;;;;;;5149325;27;20186;-69
2023/09/21 08:45:07;;;;;;;7.00;2.80;;;;;;;;;;5138776;27;20190;-69
2023/09/21 08:47:33;;;;;;;7.38;2.38;;;;;;;;;;5144363;27;20193;-68
2023/09/21 08:50:02;;;;;;;5.45;2.95;;;;;;;;;;5139250;27;20646;-69
2023/09/21 08:52:31;;;;;;;6.55;2.90;;;;;;;;;;5134827;27;20511;-69
2023/09/21 08:54:57;;;;;;;5.97;2.70;;;;;;;;;;5138223;27;20203;-69
2023/09/21 08:57:22;;;;;;;3.10;2.78;;;;;;;;;;5147562;27;20232;-69
2023/09/21 08:59:50;;;;;;;5.32;2.45;;;;;;;;;;5113213;27;20195;-69
2023/09/21 09:02:15;;;;;;;4.88;2.60;;;;;;;;;;5132224;27;20565;-69
2023/09/21 09:04:44;;;;;;;5.78;2.90;;;;;;;;;;5140978;27;20193;-68
2023/09/21 09:07:11;;;;;;;5.57;2.53;;;;;;;;;;5144036;27;20546;-70
2023/09/21 09:09:39;;;;;;;8.57;2.97;;;;;;;;;;5130398;27;20709;-70
2023/09/21 09:12:23;;;;;;;3.85;2.45;;;;;;;;;;5136571;27;20479;-68
2023/09/21 09:14:54;;;;;;;7.07;2.97;;;;;;;;;;5136097;27;20221;-69
2023/09/21 09:17:19;;;;;;;5.03;2.35;;;;;;;;;;5137787;27;20255;-69
2023/09/21 09:19:48;;;;;;;4.18;2.33;;;;;;;;;;5137350;27;20592;-68
2023/09/21 09:22:16;;;;;;;6.78;3.35;;;;;;;;;;5133391;27;20614;-68
2023/09/21 09:24:45;;;;;;;4.25;2.50;;;;;;;;;;5114549;27;20189;-68
2023/09/21 09:27:10;;;;;;;5.78;2.88;;;;;;;;;;5131710;27;20178;-68
2023/09/21 09:29:47;;;;;;;3.92;2.97;;;;;;;;;;5137054;27;20557;-67
2023/09/21 09:32:14;;;;;;;7.63;3.10;;;;;;;;;;5123538;27;20178;-69
2023/09/21 09:34:40;;;;;;;8.82;2.95;;;;;;;;;;5138411;27;20344;-69
2023/09/21 09:37:05;;;;;;;3.45;2.58;;;;;;;;;;5115823;27;20602;-69
2023/09/21 09:39:32;;;;;;;5.03;2.78;;;;;;;;;;5130325;27;20716;-69
2023/09/21 09:41:57;;;;;;;6.13;3.10;;;;;;;;;;5150280;27;20182;-68
2023/09/21 09:44:27;;;;;;;5.28;2.95;;;;;;;;;;5131821;27;20243;-69
2023/09/21 09:46:58;;;;;;;5.75;2.95;;;;;;;;;;5144667;27;20204;-68
2023/09/21 09:49:28;;;;;;;4.10;2.88;;;;;;;;;;5139569;27;20186;-68
2023/09/21 09:51:56;;;;;;;4.80;2.78;;;;;;;;;;5142458;27;20270;-71
2023/09/21 09:54:24;;;;;;;6.15;2.78;;;;;;;;;;5135956;27;20217;-69
2023/09/21 09:56:51;;;;;;;4.72;2.42;;;;;;;;;;5134043;27;20388;-68
2023/09/21 09:59:19;;;;;;;2.65;2.17;;;;;;;;;;5129776;27;20607;-68
2023/09/21 10:01:45;;;;;;;4.03;2.75;;;;;;;;;;5147321;27;20182;-68
2023/09/21 10:04:10;;;;;;;5.30;2.58;;;;;;;;;;5141511;27;20182;-70
2023/09/21 10:06:37;;;;;;;3.95;2.30;;;;;;;;;;5126242;27;20194;-71
2023/09/21 10:09:09;;;;;;;5.68;2.30;;;;;;;;;;5143027;27;20197;-73
2023/09/21 10:11:35;;;;;;;5.53;2.30;;;;;;;;;;5135735;27;20186;-69
2023/09/21 10:14:00;;;;;;;4.35;2.00;;;;;;;;;;5133254;27;20292;-70
2023/09/21 10:16:26;;;;;;;4.68;1.92;;;;;;;;;;5117812;27;20728;-69
2023/09/21 10:18:55;;;;;;;4.90;2.10;;;;;;;;;;5143006;27;20205;-69
2023/09/21 10:21:29;;;;;;;2.95;1.77;;;;;;;;;;5133802;27;20269;-69
2023/09/21 10:24:15;;;;;;;5.15;1.75;;;;;;;;;;5136664;27;20261;-68
2023/09/21 10:26:49;;;;;;;6.47;1.92;;;;;;;;;;5121861;27;20297;-69
2023/09/21 10:29:19;;;;;;;4.55;2.35;;;;;;;;;;5122126;27;20178;-69
2023/09/21 10:31:53;;;;;;;6.03;2.35;;;;;;;;;;5136375;27;20189;-69
2023/09/21 10:34:21;;;;;;;2.63;1.85;;;;;;;;;;5135150;27;20216;-70
2023/09/21 10:37:05;;;;;;;2.97;1.88;;;;;;;;;;5141892;27;20238;-70
2023/09/21 10:39:31;;;;;;;5.35;2.35;;;;;;;;;;5142876;27;20182;-69
2023/09/21 10:42:20;;;;;;;4.38;2.00;;;;;;;;;;5138812;27;20189;-69
2023/09/21 10:45:03;;;;;;;3.38;2.15;;;;;;;;;;5115949;27;20198;-69
2023/09/21 10:47:39;;;;;;;2.88;1.83;;;;;;;;;;5141407;27;20533;-69
2023/09/21 10:50:06;;;;;;;2.30;1.88;;;;;;;;;;5134972;27;20213;-69
2023/09/21 10:52:32;;;;;;;5.35;1.95;;;;;;;;;;5132686;27;20182;-69
2023/09/21 10:54:58;;;;;;;4.15;1.90;;;;;;;;;;5131562;27;20675;-69
2023/09/21 10:57:24;;;;;;;3.08;2.10;;;;;;;;;;5108804;27;20233;-70
2023/09/21 10:59:52;;;;;;;4.10;1.92;;;;;;;;;;5135270;27;20186;-68
2023/09/21 11:02:18;;;;;;;8.65;2.30;;;;;;;;;;5137022;27;20266;-68
2023/09/21 11:04:44;;;;;;;2.60;1.77;;;;;;;;;;5141043;27;20190;-68
2023/09/21 11:07:13;;;;;;;4.72;1.80;;;;;;;;;;5132169;27;20624;-69
2023/09/21 11:09:40;;;;;;;1.80;1.58;;;;;;;;;;5133245;27;20640;-68
2023/09/21 11:12:08;;;;;;;3.50;1.75;;;;;;;;;;5136943;27;20182;-69
2023/09/21 11:14:34;;;;;;;4.97;1.80;;;;;;;;;;5130129;27;20234;-68
2023/09/21 11:17:00;;;;;;;3.30;1.33;;;;;;;;;;5132324;27;20221;-73
2023/09/21 11:19:26;;;;;;;3.53;1.80;;;;;;;;;;5125909;27;20182;-69
2023/09/21 11:21:51;;;;;;;3.13;1.80;;;;;;;;;;5143471;27;20265;-70
2023/09/21 11:24:17;;;;;;;3.40;1.63;;;;;;;;;;5137238;27;20202;-68
2023/09/21 11:26:46;;;;;;;5.95;2.00;;;;;;;;;;5149860;27;20178;-73
2023/09/21 11:29:14;;;;;;;3.78;1.92;;;;;;;;;;5107871;27;20553;-69
2023/09/21 11:31:44;;;;;;;5.30;1.80;;;;;;;;;;5135304;27;20535;-69
2023/09/21 11:34:10;;;;;;;2.80;1.60;;;;;;;;;;5139370;27;20233;-69
2023/09/21 11:36:36;;;;;;;7.32;1.90;;;;;;;;;;5140522;27;20268;-69
2023/09/21 11:39:07;;;;;;;4.15;1.98;;;;;;;;;;5145972;27;20185;-69
2023/09/21 11:41:33;;;;;;;7.15;2.53;;;;;;;;;;5135494;27;20213;-69
2023/09/21 11:44:04;;;;;;;4.00;2.17;;;;;;;;;;5142658;27;20189;-70
2023/09/21 11:46:29;;;;;;;5.53;3.40;;;;;;;;;;5145895;27;20199;-70
2023/09/21 11:48:57;;;;;;;6.85;3.58;;;;;;;;;;5137268;27;20823;-68
2023/09/21 11:51:26;;;;;;;4.90;2.60;;;;;;;;;;5148778;27;20186;-69
2023/09/21 11:53:52;;;;;;;3.17;2.25;;;;;;;;;;5136452;27;20575;-73
2023/09/21 11:56:18;;;;;;;4.22;2.00;;;;;;;;;;5127858;27;20204;-70
2023/09/21 11:58:43;;;;;;;4.00;2.60;;;;;;;;;;5132794;27;20194;-68
2023/09/21 12:03:37;;;;;;;4.35;1.77;;;;;;;;;;5142741;27;20182;-69
2023/09/21 12:06:03;;;;;;;3.78;1.60;;;;;;;;;;5141827;27;20593;-69
2023/09/21 12:08:29;;;;;;;4.60;1.75;;;;;;;;;;5140629;27;20362;-71
2023/09/21 12:10:54;;;;;;;3.75;1.90;;;;;;;;;;5145020;27;20281;-74
2023/09/21 12:13:20;;;;;;;5.57;1.80;;;;;;;;;;5140426;27;20174;-69
2023/09/21 12:15:46;;;;;;;2.92;1.55;;;;;;;;;;5141989;27;20206;-69
2023/09/21 12:18:12;;;;;;;4.25;1.63;;;;;;;;;;5118444;27;20313;-69
2023/09/21 12:20:49;;;;;;;3.05;1.60;;;;;;;;;;5142396;27;20201;-70
2023/09/21 12:23:15;;;;;;;2.65;1.65;;;;;;;;;;5111888;27;20205;-70
2023/09/21 12:25:41;;;;;;;3.70;1.52;;;;;;;;;;5138963;27;20214;-70
2023/09/21 12:28:09;;;;;;;2.78;1.65;;;;;;;;;;5140237;27;20607;-70
2023/09/21 12:30:34;;;;;;;2.72;1.60;;;;;;;;;;5130603;27;20194;-69
2023/09/21 12:32:59;;;;;;;2.90;1.50;;;;;;;;;;5135820;27;20183;-69
2023/09/21 12:35:25;;;;;;;3.35;1.48;;;;;;;;;;5139105;27;20234;-70
2023/09/21 12:37:51;;;;;;;2.78;1.52;;;;;;;;;;5137965;27;20213;-70
2023/09/21 12:40:17;;;;;;;3.00;1.40;;;;;;;;;;5144618;27;20202;-70
2023/09/21 12:42:44;;;;;;;3.80;1.60;;;;;;;;;;5140343;27;20514;-71
2023/09/21 12:45:14;;;;;;;2.55;1.48;;;;;;;;;;5141853;27;20370;-70
2023/09/21 12:47:40;;;;;;;3.42;1.40;;;;;;;;;;5138275;27;21292;-70
2023/09/21 12:50:09;;;;;;;3.63;1.45;;;;;;;;;;5134143;27;20199;-70
2023/09/21 12:52:35;;;;;;;2.35;1.50;;;;;;;;;;5141265;27;20187;-69
2023/09/21 12:55:05;;;;;;;2.17;1.30;;;;;;;;;;5129879;27;20614;-69
2023/09/21 12:57:35;;;;;;;2.72;1.33;;;;;;;;;;5131177;27;20577;-69
2023/09/21 13:00:00;;;;;;;3.60;1.17;;;;;;;;;;5136869;27;20541;-70
2023/09/21 13:02:25;;;;;;;3.15;1.40;;;;;;;;;;5142746;27;20197;-69
2023/09/21 13:04:55;;;;;;;3.22;1.50;;;;;;;;;;5144394;27;20286;-68
2023/09/21 13:07:23;;;;;;;2.20;1.30;;;;;;;;;;5140273;27;20186;-69
2023/09/21 13:09:49;;;;;;;4.13;2.00;;;;;;;;;;5144692;27;20575;-71
2023/09/21 13:12:14;;;;;;;3.40;2.17;;;;;;;;;;5140112;27;20227;-73
2023/09/21 13:14:41;;;;;;;4.10;2.20;;;;;;;;;;5114665;27;20210;-72
2023/09/21 13:17:07;;;;;;;3.85;2.10;;;;;;;;;;5138564;27;20311;-72
2023/09/21 13:19:32;;;;;;;5.38;2.20;;;;;;;;;;5107549;27;20195;-72
2023/09/21 13:21:57;;;;;;;5.60;2.17;;;;;;;;;;5139540;27;20190;-72
2023/09/21 13:24:23;;;;;;;3.05;2.00;;;;;;;;;;5136489;27;20203;-74
2023/09/21 13:26:48;;;;;;;4.57;2.50;;;;;;;;;;5136955;27;20193;-72
2023/09/21 13:29:14;;;;;;;4.43;2.42;;;;;;;;;;5125080;27;20217;-72
2023/09/21 13:31:39;;;;;;;3.30;2.33;;;;;;;;;;5136615;27;20662;-72
2023/09/21 13:34:04;;;;;;;4.47;2.45;;;;;;;;;;5137021;27;20300;-72
2023/09/21 13:36:30;;;;;;;6.75;2.75;;;;;;;;;;5146398;27;20345;-73
2023/09/21 13:38:55;;;;;;;3.00;2.50;;;;;;;;;;5128432;27;20197;-73
2023/09/21 13:41:21;;;;;;;5.45;2.53;;;;;;;;;;5121593;27;20197;-74
2023/09/21 13:43:47;;;;;;;4.00;2.70;;;;;;;;;;5113798;27;20685;-74
2023/09/21 13:46:13;;;;;;;3.85;2.67;;;;;;;;;;5143921;27;20198;-74
2023/09/21 13:48:39;;;;;;;7.35;2.60;;;;;;;;;;5114569;27;20199;-75
2023/09/21 13:51:04;;;;;;;4.80;2.38;;;;;;;;;;5143910;27;20204;-75
2023/09/21 13:53:30;;;;;;;4.75;2.38;;;;;;;;;;5126753;27;20641;-75
2023/09/21 13:55:55;;;;;;;3.35;2.10;;;;;;;;;;5130323;27;20790;-75
2023/09/21 13:58:21;;;;;;;4.57;2.08;;;;;;;;;;5138531;27;20358;-74
2023/09/21 14:00:48;;;;;;;3.22;2.10;;;;;;;;;;5128793;27;20254;-75
2023/09/21 14:03:15;;;;;;;4.05;1.73;;;;;;;;;;5143934;27;20265;-75
2023/09/21 14:05:40;;;;;;;2.17;1.90;;;;;;;;;;5118346;27;20187;-74
2023/09/21 14:08:09;;;;;;;2.85;1.63;;;;;;;;;;5110796;27;20548;-75
2023/09/21 14:10:35;;;;;;;2.95;1.77;;;;;;;;;;5129939;27;20236;-74
2023/09/21 14:13:01;;;;;;;2.55;1.67;;;;;;;;;;5133963;27;20580;-74
2023/09/21 14:15:27;;;;;;;2.50;1.60;;;;;;;;;;5137359;27;20230;-73
2023/09/21 14:17:53;;;;;;;2.30;1.70;;;;;;;;;;5132791;27;20205;-73
2023/09/21 14:20:21;;;;;;;3.40;1.50;;;;;;;;;;5114903;27;20280;-74
2023/09/21 14:22:46;;;;;;;3.83;2.03;;;;;;;;;;5122545;27;20181;-74
2023/09/21 14:25:12;;;;;;;2.20;2.00;;;;;;;;;;5136488;27;20550;-73
2023/09/21 14:27:37;;;;;;;3.72;1.73;;;;;;;;;;5108131;27;20566;-74
2023/09/21 14:30:04;;;;;;;2.35;1.73;;;;;;;;;;5124379;28;20178;-74
2023/09/21 14:32:29;;;;;;;3.50;2.00;;;;;;;;;;5133081;27;20195;-74
2023/09/21 14:34:54;;;;;;;3.92;1.95;;;;;;;;;;5138385;27;20208;-74
2023/09/21 14:37:20;;;;;;;2.55;1.70;;;;;;;;;;5146594;27;20217;-74
2023/09/21 14:39:45;;;;;;;2.13;1.70;;;;;;;;;;5135679;27;20627;-74
2023/09/21 14:42:12;;;;;;;2.50;1.73;;;;;;;;;;5138861;27;20249;-74
2023/09/21 14:44:37;;;;;;;3.95;1.67;;;;;;;;;;5142864;27;20181;-73